Detalii statie UNIVERSITATEA AGRICOLA IASI [0000198B]

Toti senzorii

Date Temperatura solului [C]Precipitatii [mm]Voltaj baterie [mV]HC Air temperature [C]HC Relative humidity [%]Punctul de roua [C]
medieminmaxsumaultimamedieminmaxmediemediemin
2017-08-14 20:00:00 19.5 19.4 19.7 0 7020 20.66 20.16 20.81 100 20.6 20.1
2017-08-14 21:00:00 19.4 19.3 19.7 0.2 6992 19.54 19.1 19.95 100 19.5 19.1
2017-08-14 22:00:00 19.3 19.3 19.4 0 6942 19.63 19.41 19.84 100 19.6 19.4
2017-08-14 23:00:00 19.3 19.2 19.4 0 6942 19.51 19.33 19.68 100 19.4 19.3
2017-08-15 00:00:00 19.3 19.2 19.4 0 6932 19.81 19.57 19.94 100 19.7 19.5
2017-08-15 01:00:00 19.2 19.1 19.3 0 6914 19.91 19.77 20.04 100 19.8 19.7
2017-08-15 02:00:00 19.1 18.9 19.2 0 6904 19.8 19.7 19.94 100 19.7 19.7
2017-08-15 03:00:00 19 18.9 19.2 0 6884 19.58 19.42 19.8 100 19.5 19.4
2017-08-15 04:00:00 18.9 18.9 19 0 6884 19.24 19.05 19.39 100 19.1 19
2017-08-15 05:00:00 18.9 18.9 19.1 0 6884 19.02 18.85 19.14 100 18.9 18.8
2017-08-15 06:00:00 18.9 18.8 19 0 6874 18.72 18.39 18.91 100 18.6 18.3
2017-08-15 07:00:00 18.8 18.7 18.9 0 6922 18.39 18.26 18.5 100 18.3 18.2
2017-08-15 08:00:00 18.7 18.7 18.9 0 7128 19 18.62 19.41 100 18.9 18.6
2017-08-15 09:00:00 18.8 18.7 19.1 0 7314 19.96 19.5 20.32 100 19.9 19.5
2017-08-15 10:00:00 18.9 18.9 19 0 7304 20.34 20.21 20.65 100 20.3 20.2
2017-08-15 11:00:00 19.1 18.9 19.4 0 7314 21.6 20.68 23.43 99.99 21.5 20.6
2017-08-15 12:00:00 19.5 19.4 19.8 0 7314 23.78 22.89 24.79 98.04 23.3 22.6
2017-08-15 13:00:00 20 19.8 20.3 0 7314 25.05 23.59 26.17 95.01 24 22.8
2017-08-15 14:00:00 20.4 20.3 20.6 0 7314 26.3 25.84 26.8 94.09 25.1 24.7
2017-08-15 15:00:00 20.7 20.6 21.1 0 7314 27.05 26.54 27.5 91.27 25.3 25
2017-08-15 16:00:00 20.9 20.7 21.2 0 7246 27.16 26.93 27.56 90.28 25.2 24.9
2017-08-15 17:00:00 21.2 21 21.3 0 7206 26.84 26.6 27.22 89.9 24.9 24.6
2017-08-15 18:00:00 21.2 21 21.4 0 7186 26.06 25.2 26.57 90.99 24.3 24
2017-08-15 19:00:00 21 20.9 21.3 0 7080 24.35 23.69 24.96 95 23.3 22.9
2017-08-15 20:00:00 20.9 20.9 21.2 0 6992 22.83 22.3 23.65 99.26 22.6 22.3
2017-08-15 21:00:00 20.8 20.5 21.2 0 6962 22.52 22 22.94 96.1 21.7 20.8
2017-08-15 22:00:00 20.6 20.5 20.8 0 6942 21.48 21.2 21.74 95.37 20.5 20.4
2017-08-15 23:00:00 20.4 20.1 20.6 0 6932 21.18 20.94 21.48 95.29 20.2 20.2
2017-08-16 00:00:00 20.3 20.2 20.5 0 6942 20.56 20.29 20.88 99.54 20.3 20.2
2017-08-16 01:00:00 20.2 20.2 20.4 0 6922 19.44 18.88 20.08 100 19.3 18.8
2017-08-16 02:00:00 20.1 20 20.3 0 6932 18.49 17.67 18.89 100 18.4 17.6
2017-08-16 03:00:00 20 19.8 20.2 0 6914 18.14 17.52 18.67 100 18.1 17.5
2017-08-16 04:00:00 19.8 19.7 20 0 6914 17.75 16.87 18.49 100 17.7 16.8
2017-08-16 05:00:00 19.7 19.6 20 0 6894 17.63 17.39 17.88 100 17.5 17.3
2017-08-16 06:00:00 19.6 19.4 19.8 0 6942 17.37 16.44 17.95 100 17.3 16.4
2017-08-16 07:00:00 19.5 19.4 19.8 0 7304 18.93 17.99 19.99 100 18.8 17.9
2017-08-16 08:00:00 19.6 19.4 19.8 0 7314 20.72 20.02 21.41 100 20.6 20
2017-08-16 09:00:00 19.8 19.8 20 0 7314 22.7 21.65 24.06 100 22.6 21.6
2017-08-16 10:00:00 20.2 20.1 20.4 0 7304 24.61 23.9 25.86 100 24.5 23.9
2017-08-16 11:00:00 20.6 20.4 20.8 0 7304 26.88 26.09 27.69 98.61 26.5 26
2017-08-16 12:00:00 21.1 20.7 21.5 0 7304 28.46 27.43 29.36 93.51 27.1 26.3
2017-08-16 13:00:00 21.8 21.5 22.2 0 7304 29.74 29.36 30.45 89.22 27.6 26.8
2017-08-16 14:00:00 22.2 22.1 22.4 0 7226 30.46 29.27 31.23 84.27 27.3 26.1
2017-08-16 15:00:00 22.5 22.3 22.7 0 7304 30.96 30.21 31.46 80.48 27 26.2
2017-08-16 16:00:00 22.8 22.7 22.9 0 7206 31.08 30.44 31.49 78.42 26.7 25.5
2017-08-16 17:00:00 22.8 22.7 22.9 0 7166 29.74 28.58 30.86 78.1 25.3 23.9
2017-08-16 18:00:00 22.6 22.4 22.9 0 7060 28.14 27.62 28.97 76.84 23.5 23
2017-08-16 19:00:00 22.3 22.3 22.4 0 7010 26.6 25.29 27.74 85.31 23.7 22.8